Terminal Aerodrome Forecast
Issued by NWS

Home | Current Version | Previous Version | Text Only | Print | Product List | Glossary On
Versions: 1 2 3 4 5 6 7 8 9 10 11 12 13 14 15 16 17 18 19 20 21 22 23 24 25 26 27 28 29 30
504
FTUS41 KALY 211135
TAFPSF
TAF
KPSF 211135Z 2112/2212 00000KT P6SM SCT030
     FM211500 36008G16KT P6SM SCT040 BKN250
     FM212200 01007KT P6SM BKN250
     FM220200 02004KT P6SM SCT250=

USA.gov is the U.S. government's official web portal to all federal, state and local government web resources and services.